Time;durP1;ratioP1;P1;durP2;ratioP2;P2;SDS_P1;SDS_P2;PMS_P1;PMS_P2;Temp;Humidity;BMP_temperature;BMP_pressure;BME280_temperature;BME280_humidity;BME280_pressure;Samples;Min_cycle;Max_cycle;Signal;HPM_P1;HPM_P2
2021/04/11 00:00:57;;;;;;;;;8.00;8.00;;;;;27.29;54.64;99174.00;4978678;28;8850;-72
2021/04/11 00:03:28;;;;;;;;;8.00;8.00;;;;;27.34;54.17;99186.44;4980999;28;8844;-71
2021/04/11 00:05:56;;;;;;;;;11.00;11.00;;;;;27.35;54.70;99182.56;4982760;28;8839;-72
2021/04/11 00:08:25;;;;;;;;;8.50;8.50;;;;;27.30;54.49;99180.97;4979686;28;8941;-71
2021/04/11 00:10:58;;;;;;;;;8.00;8.00;;;;;27.30;54.46;99172.09;4981608;28;8931;-72
2021/04/11 00:13:38;;;;;;;;;8.00;8.00;;;;;27.42;54.20;99187.31;4981945;28;8835;-72
2021/04/11 00:16:07;;;;;;;;;7.00;7.00;;;;;27.46;54.92;99190.84;4977789;28;9019;-72
2021/04/11 00:18:35;;;;;;;;;6.00;6.00;;;;;27.44;54.14;99188.50;4980997;28;8838;-72
2021/04/11 00:21:05;;;;;;;;;7.75;7.75;;;;;27.39;54.05;99177.97;4978460;28;8867;-72
2021/04/11 00:23:34;;;;;;;;;4.00;4.00;;;;;27.48;53.83;99192.03;4981987;28;8890;-72
2021/04/11 00:26:04;;;;;;;;;4.75;4.75;;;;;27.58;53.74;99207.63;4981175;28;8838;-72
2021/04/11 00:28:32;;;;;;;;;5.00;5.00;;;;;27.58;53.79;99202.22;4981558;28;8926;-72
2021/04/11 00:31:01;;;;;;;;;5.00;5.00;;;;;27.59;53.55;99209.22;4978597;28;8835;-72
2021/04/11 00:33:33;;;;;;;;;4.75;4.75;;;;;27.59;53.49;99209.22;4971674;28;8846;-72
2021/04/11 00:36:06;;;;;;;;;4.50;4.50;;;;;27.65;53.71;99217.81;4980081;28;8983;-71
2021/04/11 00:38:35;;;;;;;;;1.75;1.75;;;;;27.44;53.54;99188.50;4981620;28;8847;-72
2021/04/11 00:41:16;;;;;;;;;6.25;6.25;;;;;27.68;53.70;99227.91;4971823;28;8849;-72
2021/04/11 00:43:45;;;;;;;;;5.75;5.75;;;;;27.72;53.50;99226.03;4987527;28;8828;-72
2021/04/11 00:46:32;;;;;;;;;5.25;4.25;;;;;27.77;53.63;99228.41;4978629;28;8967;-72
2021/04/11 00:49:04;;;;;;;;;3.50;3.50;;;;;27.76;53.25;99223.38;4977981;28;8848;-72
2021/04/11 00:51:33;;;;;;;;;3.75;3.50;;;;;27.52;53.30;99192.06;4955634;28;8830;-70
2021/04/11 00:54:05;;;;;;;;;3.50;3.50;;;;;27.78;53.36;99229.97;4986112;28;9522;-70
2021/04/11 00:56:38;;;;;;;;;4.25;3.75;;;;;27.80;53.65;99229.63;4990424;28;9018;-71
2021/04/11 00:59:10;;;;;;;;;18.75;18.75;;;;;27.82;52.85;99232.72;4985870;28;8920;-71
2021/04/11 01:01:40;;;;;;;;;15.50;15.00;;;;;27.83;52.79;99232.38;4988928;28;8898;-71
2021/04/11 01:04:11;;;;;;;;;6.00;6.00;;;;;27.94;52.95;99244.13;4968969;28;8834;-72
2021/04/11 01:06:43;;;;;;;;;5.75;5.75;;;;;27.98;53.03;99257.72;4986039;28;8836;-72
2021/04/11 01:09:40;;;;;;;;;4.25;4.25;;;;;28.09;52.67;99260.53;4992341;28;8828;-73
2021/04/11 01:12:14;;;;;;;;;3.75;3.75;;;;;28.13;52.79;99270.28;4987301;28;8863;-71
2021/04/11 01:14:44;;;;;;;;;5.00;5.00;;;;;28.15;52.78;99275.34;4979936;28;8980;-71
2021/04/11 01:17:20;;;;;;;;;0.00;0.00;;;;;28.11;52.63;99260.94;4991659;28;8905;-71
2021/04/11 01:19:52;;;;;;;;;3.25;3.25;;;;;28.12;52.77;99262.50;4990374;28;8848;-72
2021/04/11 01:22:32;;;;;;;;;3.50;3.50;;;;;28.16;53.04;99274.97;4993965;28;8852;-72
2021/04/11 01:25:07;;;;;;;;;3.50;3.50;;;;;28.01;52.77;99251.53;4992932;28;8824;-72
2021/04/11 01:27:37;;;;;;;;;3.25;3.25;;;;;28.18;52.77;99283.50;4991153;28;8812;-72
2021/04/11 01:30:27;;;;;;;;;3.00;3.00;;;;;28.13;52.66;99270.28;4991115;28;8844;-71
2021/04/11 01:32:56;;;;;;;;;3.75;3.75;;;;;28.14;52.51;99276.50;4984111;28;8842;-71
2021/04/11 01:35:28;;;;;;;;;3.75;3.75;;;;;28.16;52.70;99280.38;4984276;28;8823;-71
2021/04/11 01:37:58;;;;;;;;;3.00;3.00;;;;;28.17;52.67;99276.53;4984687;28;8852;-71
2021/04/11 01:40:47;;;;;;;;;4.25;4.25;;;;;28.24;52.60;99278.56;4984719;28;8826;-71
2021/04/11 01:43:15;;;;;;;;;2.75;2.75;;;;;28.18;52.77;99255.59;4980242;28;8814;-71
2021/04/11 01:45:47;;;;;;;;;2.25;2.00;;;;;28.31;52.60;99275.16;4983442;28;8814;-71
2021/04/11 01:48:17;;;;;;;;;2.50;2.50;;;;;28.34;52.57;99288.75;4994306;28;9553;-71
2021/04/11 01:50:46;;;;;;;;;2.25;2.25;;;;;28.34;52.52;99287.97;4994029;28;9541;-71
2021/04/11 01:53:16;;;;;;;;;3.00;3.00;;;;;28.37;52.55;99288.00;4994245;28;8882;-72
2021/04/11 01:55:45;;;;;;;;;4.75;4.75;;;;;28.42;52.66;99293.09;4993890;28;8831;-72
2021/04/11 01:58:13;;;;;;;;;3.00;3.00;;;;;28.43;52.55;99300.09;4993738;28;8840;-71
2021/04/11 02:00:47;;;;;;;;;3.25;3.25;;;;;28.47;52.43;99303.63;4991538;28;8832;-72
2021/04/11 02:03:19;;;;;;;;;3.50;3.50;;;;;28.49;52.55;99305.97;4993368;28;8859;-72
2021/04/11 02:05:49;;;;;;;;;3.25;3.25;;;;;28.50;52.59;99313.72;4990963;28;8937;-72
2021/04/11 02:08:23;;;;;;;;;4.25;4.25;;;;;28.53;52.39;99312.97;4992766;28;8930;-72
2021/04/11 02:10:55;;;;;;;;;1.75;1.75;;;;;28.54;52.23;99314.53;4992614;28;9635;-72
2021/04/11 02:13:32;;;;;;;;;2.75;2.75;;;;;28.57;52.35;99316.50;4992645;28;8886;-72
2021/04/11 02:16:02;;;;;;;;;3.50;3.50;;;;;28.38;52.61;99284.13;4972956;28;8856;-71
2021/04/11 02:18:32;;;;;;;;;3.00;3.00;;;;;28.66;52.29;99318.13;4992477;28;8954;-71
2021/04/11 02:21:03;;;;;;;;;2.00;2.00;;;;;28.72;52.47;99322.84;4990564;28;8840;-71
2021/04/11 02:23:32;;;;;;;;;3.00;3.00;;;;;28.75;52.46;99321.31;4992289;28;8836;-71
2021/04/11 02:26:00;;;;;;;;;4.00;4.00;;;;;28.81;52.08;99330.66;4992262;28;8840;-71
2021/04/11 02:28:31;;;;;;;;;2.75;2.75;;;;;28.73;52.08;99318.19;4992405;28;8947;-72
2021/04/11 02:31:19;;;;;;;;;3.75;3.75;;;;;28.79;52.26;99335.69;4990117;28;8844;-71
2021/04/11 02:34:02;;;;;;;;;2.75;2.75;;;;;28.77;52.26;99330.63;4990212;28;8852;-71
2021/04/11 02:36:50;;;;;;;;;3.00;3.00;;;;;28.53;52.49;99293.22;4991663;28;8821;-71
2021/04/11 02:39:26;;;;;;;;;2.75;2.75;;;;;28.79;52.36;99338.41;4992357;28;9687;-72
2021/04/11 02:41:56;;;;;;;;;3.25;3.25;;;;;28.82;52.72;99343.09;4993653;28;9592;-73
2021/04/11 02:44:25;;;;;;;;;2.25;1.75;;;;;28.86;52.63;99344.72;4993114;28;8906;-72
2021/04/11 02:46:54;;;;;;;;;3.25;3.25;;;;;28.90;52.35;99345.53;4990146;28;8805;-72
2021/04/11 02:49:23;;;;;;;;;3.00;3.00;;;;;28.95;52.26;99344.41;4992490;28;8959;-73
2021/04/11 02:51:53;;;;;;;;;3.00;3.00;;;;;28.90;52.15;99333.88;4992976;28;8918;-72
2021/04/11 02:54:23;;;;;;;;;0.00;0.00;;;;;29.03;51.98;99337.88;4990553;28;8820;-72
2021/04/11 02:56:52;;;;;;;;;5.00;5.00;;;;;28.90;52.06;99312.94;4989851;28;8962;-72
2021/04/11 02:59:20;;;;;;;;;3.75;3.75;;;;;29.11;52.26;99339.50;4990075;28;8824;-72
2021/04/11 03:01:50;;;;;;;;;4.50;4.50;;;;;29.15;52.05;99348.47;4991377;28;8907;-72
2021/04/11 03:04:22;;;;;;;;;4.25;4.25;;;;;29.18;52.25;99341.50;4991058;28;8835;-72
2021/04/11 03:07:02;;;;;;;;;3.75;3.75;;;;;29.27;52.18;99346.59;4991867;28;8847;-72
2021/04/11 03:09:39;;;;;;;;;4.00;4.00;;;;;29.33;52.26;99345.88;4991119;28;9622;-71
2021/04/11 03:12:09;;;;;;;;;1.75;1.75;;;;;29.34;51.83;99335.78;4993331;28;8934;-72
2021/04/11 03:14:41;;;;;;;;;3.00;3.00;;;;;29.45;51.85;99342.09;4991025;28;8860;-71
2021/04/11 03:17:21;;;;;;;;;5.25;5.25;;;;;29.48;52.03;99341.34;4987755;28;8835;-72
2021/04/11 03:19:58;;;;;;;;;4.00;4.00;;;;;29.52;51.81;99342.16;4988050;28;8858;-72
2021/04/11 03:22:27;;;;;;;;;3.50;3.50;;;;;29.48;52.03;99341.34;4973150;28;8926;-72
2021/04/11 03:24:56;;;;;;;;;3.00;3.00;;;;;29.55;51.87;99335.97;4989192;28;9586;-72
2021/04/11 03:27:39;;;;;;;;;4.25;4.25;;;;;29.60;51.81;99330.16;4989538;28;8848;-72
2021/04/11 03:30:30;;;;;;;;;3.75;3.75;;;;;29.69;51.80;99324.38;4987987;28;8944;-71
2021/04/11 03:33:07;;;;;;;;;3.75;3.75;;;;;29.72;51.39;99316.25;4989519;28;8840;-71
2021/04/11 03:35:39;;;;;;;;;5.75;5.75;;;;;29.79;51.27;99327.16;4981388;28;8852;-71
2021/04/11 03:38:10;;;;;;;;;7.00;5.25;;;;;29.83;51.37;99322.53;4987597;28;8906;-71
2021/04/11 03:40:41;;;;;;;;;4.00;4.00;;;;;29.67;51.56;99292.16;4987884;28;8836;-72
2021/04/11 03:43:18;;;;;;;;;5.00;5.00;;;;;29.92;51.58;99318.66;4986695;28;8838;-71
2021/04/11 03:45:46;;;;;;;;;5.00;5.00;;;;;29.97;51.64;99308.19;4988196;28;8828;-72
2021/04/11 03:48:46;;;;;;;;;4.50;3.50;;;;;30.10;51.52;99306.69;4986846;28;8831;-72
2021/04/11 03:51:22;;;;;;;;;6.25;6.25;;;;;30.15;51.23;99300.88;4988849;28;8902;-71
2021/04/11 03:54:10;;;;;;;;;5.00;4.50;;;;;30.33;51.39;99309.09;4989630;28;8850;-71
2021/04/11 03:56:45;;;;;;;;;4.25;4.25;;;;;30.34;50.58;99294.34;4987668;28;8983;-71
2021/04/11 03:59:23;;;;;;;;;3.75;3.75;;;;;30.46;50.87;99301.34;4984536;28;8832;-71
2021/04/11 04:01:55;;;;;;;;;4.75;4.75;;;;;30.54;50.52;99307.59;4987058;28;8824;-71
2021/04/11 04:04:25;;;;;;;;;4.75;4.75;;;;;30.57;50.26;99301.38;4987541;28;8840;-71
2021/04/11 04:07:08;;;;;;;;;4.75;4.75;;;;;30.68;50.31;99299.47;4988527;28;9644;-71
2021/04/11 04:09:38;;;;;;;;;3.00;3.00;;;;;30.54;50.68;99262.09;4978933;28;8865;-71
2021/04/11 04:12:24;;;;;;;;;2.00;2.00;;;;;30.70;50.33;99284.31;4969879;28;8828;-72
2021/04/11 04:15:11;;;;;;;;;4.00;4.00;;;;;30.78;50.38;99293.25;4989864;28;8896;-71
2021/04/11 04:18:04;;;;;;;;;4.50;4.50;;;;;30.78;49.79;99279.63;4988251;28;8832;-71
2021/04/11 04:21:03;;;;;;;;;3.75;3.75;;;;;30.84;50.38;99278.09;4986783;28;8848;-71
2021/04/11 04:23:56;;;;;;;;;4.25;4.25;;;;;30.90;50.26;99278.47;4988696;28;9624;-71
2021/04/11 04:26:56;;;;;;;;;4.75;4.75;;;;;30.93;50.47;99273.03;4985612;28;8909;-72
2021/04/11 04:29:49;;;;;;;;;4.75;4.75;;;;;30.95;50.06;99264.47;4983543;28;8844;-72
2021/04/11 04:32:56;;;;;;;;;4.00;4.00;;;;;30.98;49.82;99269.13;4992972;28;8862;-72
2021/04/11 04:35:48;;;;;;;;;4.00;4.00;;;;;31.07;49.85;99256.66;4988225;28;8823;-72
2021/04/11 04:38:24;;;;;;;;;5.00;5.00;;;;;31.18;49.87;99248.50;4967562;28;8938;-71
2021/04/11 04:41:14;;;;;;;;;5.25;5.25;;;;;31.31;49.52;99257.78;4990536;28;8840;-70
2021/04/11 04:43:57;;;;;;;;;4.00;4.00;;;;;31.34;49.60;99234.41;4989496;28;8878;-69
2021/04/11 04:46:57;;;;;;;;;5.50;5.50;;;;;31.54;49.57;99240.97;4988258;28;8930;-71
2021/04/11 04:49:45;;;;;;;;;3.50;3.50;;;;;31.58;49.21;99244.47;4986823;28;8902;-72
2021/04/11 04:52:19;;;;;;;;;5.50;5.50;;;;;31.57;49.16;99237.47;4983000;28;9004;-72
2021/04/11 04:54:56;;;;;;;;;5.00;5.00;;;;;31.48;48.75;99218.78;4983940;28;8844;-71
2021/04/11 04:57:46;;;;;;;;;4.50;4.50;;;;;31.58;48.07;99222.66;4978883;28;8844;-72
2021/04/11 05:00:23;;;;;;;;;8.00;8.00;;;;;31.60;49.29;99206.66;4990106;28;8836;-71
2021/04/11 05:03:19;;;;;;;;;5.25;5.00;;;;;31.78;49.31;99199.22;4992717;28;9577;-72
2021/04/11 05:06:10;;;;;;;;;4.00;4.00;;;;;31.80;47.89;99196.09;4989939;28;8895;-71
2021/04/11 05:09:01;;;;;;;;;6.75;6.75;;;;;31.89;48.94;99190.97;4967485;28;8824;-71
2021/04/11 05:11:40;;;;;;;;;2.00;2.00;;;;;32.03;48.57;99182.69;4987641;28;8856;-71
2021/04/11 05:14:13;;;;;;;;;6.75;6.75;;;;;32.08;48.66;99176.81;4990495;28;8835;-71
2021/04/11 05:16:54;;;;;;;;;23.00;23.00;;;;;32.04;47.65;99172.56;4991061;28;8922;-70
2021/04/11 05:19:30;;;;;;;;;7.25;7.25;;;;;32.14;48.46;99174.44;4991047;28;8866;-71
2021/04/11 05:22:18;;;;;;;;;7.25;7.25;;;;;32.22;47.26;99175.94;4991756;28;9562;-71
2021/04/11 05:24:52;;;;;;;;;8.00;8.00;;;;;32.30;47.83;99177.47;4989762;28;8832;-70
2021/04/11 05:27:46;;;;;;;;;7.00;7.00;;;;;32.37;48.00;99168.44;4990048;28;8848;-70
2021/04/11 05:30:51;;;;;;;;;6.75;6.75;;;;;32.36;46.06;99162.22;4983081;28;8839;-70
2021/04/11 05:33:23;;;;;;;;;7.50;7.50;;;;;32.41;47.75;99153.59;4991679;28;8843;-70
2021/04/11 05:36:02;;;;;;;;;7.00;7.00;;;;;32.50;47.48;99138.69;4991022;28;8867;-71
2021/04/11 05:38:46;;;;;;;;;8.50;8.50;;;;;32.55;47.37;99140.94;4991197;28;8879;-71
2021/04/11 05:41:24;;;;;;;;;6.00;6.00;;;;;32.42;47.06;99116.13;4990697;28;8831;-71
2021/04/11 05:44:09;;;;;;;;;14.25;14.25;;;;;32.50;46.95;99133.22;4990639;28;8844;-72
2021/04/11 05:46:56;;;;;;;;;9.75;9.75;;;;;32.48;47.00;99130.13;4990785;28;8859;-72
2021/04/11 05:49:33;;;;;;;;;11.25;11.25;;;;;32.49;46.49;99121.53;4989994;28;8840;-72
2021/04/11 05:52:10;;;;;;;;;12.25;12.00;;;;;32.55;46.11;99110.91;4991470;28;8844;-71
2021/04/11 05:54:46;;;;;;;;;9.50;9.50;;;;;32.67;45.26;99110.41;4989813;28;8886;-72
2021/04/11 05:57:27;;;;;;;;;8.75;8.75;;;;;32.77;45.25;99095.88;4990116;28;8833;-71
2021/04/11 06:00:05;;;;;;;;;8.25;8.25;;;;;32.96;45.27;99091.78;4990407;28;8938;-71
2021/04/11 06:02:49;;;;;;;;;6.20;6.20;;;;;33.10;44.55;99091.59;4970092;28;8839;-72
2021/04/11 06:05:36;;;;;;;;;7.75;7.75;;;;;33.05;45.94;99049.09;4985568;28;8852;-72
2021/04/11 06:08:23;;;;;;;;;5.50;5.50;;;;;33.35;46.02;99063.97;4987519;28;8832;-71
2021/04/11 06:11:20;;;;;;;;;6.75;6.75;;;;;33.38;44.44;99063.13;4985984;28;8860;-71
2021/04/11 06:14:18;;;;;;;;;6.00;6.00;;;;;33.39;45.96;99046.31;4969277;28;8862;-71
2021/04/11 06:16:49;;;;;;;;;6.40;6.40;;;;;33.50;44.44;99045.38;4984906;28;8848;-71
2021/04/11 06:19:19;;;;;;;;;6.75;6.75;;;;;33.57;46.13;99046.06;4987028;28;8848;-71
2021/04/11 06:22:11;;;;;;;;;9.25;9.25;;;;;33.61;45.65;99032.31;4973450;28;9605;-70
2021/04/11 06:25:00;;;;;;;;;7.00;7.00;;;;;33.60;43.65;99034.28;4985405;28;8830;-72
2021/04/11 06:28:01;;;;;;;;;9.75;9.75;;;;;33.59;43.39;99007.34;4987795;28;8965;-71
2021/04/11 06:30:37;;;;;;;;;7.25;7.25;;;;;33.71;45.70;99010.28;4978848;28;9592;-70
2021/04/11 06:33:21;;;;;;;;;7.00;7.00;;;;;33.63;44.37;99000.63;4984532;28;8949;-71
2021/04/11 06:36:00;;;;;;;;;6.50;6.50;;;;;33.63;44.13;99003.38;4980719;28;8844;-71
2021/04/11 06:38:35;;;;;;;;;7.50;7.50;;;;;33.59;45.42;98988.97;4962649;28;8866;-71
2021/04/11 06:41:29;;;;;;;;;9.50;9.50;;;;;33.65;45.46;98990.03;4989609;28;8855;-71
2021/04/11 06:44:26;;;;;;;;;11.50;11.50;;;;;33.63;43.27;98983.44;4988763;28;8848;-70
2021/04/11 06:47:19;;;;;;;;;10.00;10.00;;;;;33.71;45.00;98969.22;4988323;28;8910;-71
2021/04/11 06:50:08;;;;;;;;;8.75;8.75;;;;;33.78;44.96;98967.56;4985349;28;8857;-70
2021/04/11 06:53:08;;;;;;;;;5.75;5.75;;;;;33.81;44.90;98962.03;4986431;28;8832;-70
2021/04/11 06:56:08;;;;;;;;;8.50;8.50;;;;;33.87;43.55;98954.88;4988383;28;8832;-69
2021/04/11 06:58:55;;;;;;;;;8.25;8.25;;;;;33.85;42.96;98938.13;4984744;28;8919;-70
2021/04/11 07:01:47;;;;;;;;;9.75;9.75;;;;;34.04;44.67;98942.06;4985507;28;8861;-70
2021/04/11 07:04:50;;;;;;;;;10.00;10.00;;;;;34.07;42.68;98946.72;4981048;28;8951;-71
2021/04/11 07:07:53;;;;;;;;;9.80;9.00;;;;;34.04;43.35;98929.16;4988090;28;8864;-71
2021/04/11 07:10:43;;;;;;;;;12.00;11.00;;;;;34.07;43.39;98930.28;4987212;28;8843;-70
2021/04/11 07:13:36;;;;;;;;;8.00;8.00;;;;;34.06;44.05;98926.00;4987732;28;8837;-72
2021/04/11 07:16:36;;;;;;;;;9.75;9.75;;;;;33.98;44.94;98930.84;4985802;28;9597;-71
2021/04/11 07:19:30;;;;;;;;;5.75;5.75;;;;;33.86;44.19;98920.50;4985384;28;8852;-71
2021/04/11 07:22:24;;;;;;;;;7.20;7.20;;;;;33.76;44.11;98931.63;4985431;28;8868;-71
2021/04/11 07:25:15;;;;;;;;;8.25;8.25;;;;;33.72;44.27;98924.28;4987634;28;8840;-72
2021/04/11 07:28:04;;;;;;;;;7.25;7.25;;;;;33.68;43.67;98909.88;4985950;28;8871;-72
2021/04/11 07:31:04;;;;;;;;;9.00;9.00;;;;;33.82;43.12;98919.03;4987565;28;8816;-71
2021/04/11 07:34:03;;;;;;;;;7.40;7.40;;;;;33.89;44.37;98914.19;4986361;28;8851;-71
2021/04/11 07:36:48;;;;;;;;;6.20;6.20;;;;;33.88;44.00;98907.16;4978412;28;8856;-73
2021/04/11 07:39:37;;;;;;;;;7.60;7.60;;;;;33.81;43.68;98893.63;4985403;28;8920;-71
2021/04/11 07:42:45;;;;;;;;;7.00;7.00;;;;;33.93;44.31;98909.44;4983981;28;8844;-70
2021/04/11 07:45:45;;;;;;;;;7.20;7.20;;;;;33.91;44.26;98897.34;4983629;28;8854;-71
2021/04/11 07:48:36;;;;;;;;;7.20;7.20;;;;;33.89;43.78;98897.78;4985669;28;8821;-72
2021/04/11 07:51:43;;;;;;;;;7.00;7.00;;;;;33.92;43.49;98890.69;4989452;28;8844;-71
2021/04/11 07:54:48;;;;;;;;;7.20;7.20;;;;;33.91;42.09;98878.19;4988346;28;8852;-72
2021/04/11 07:57:56;;;;;;;;;7.40;7.40;;;;;34.07;42.30;98885.72;4947898;28;8842;-72
2021/04/11 08:01:03;;;;;;;;;7.80;7.80;;;;;34.00;43.16;98853.78;4942618;28;8856;-72
2021/04/11 08:03:59;;;;;;;;;7.40;7.40;;;;;34.16;43.38;98873.00;4946341;28;8858;-70
2021/04/11 08:07:07;;;;;;;;;7.00;7.00;;;;;34.15;43.17;98874.19;4955129;28;8908;-71
2021/04/11 08:10:04;;;;;;;;;7.00;7.00;;;;;34.18;43.26;98867.09;4947510;28;9603;-72
2021/04/11 08:12:57;;;;;;;;;5.40;5.40;;;;;34.19;42.76;98860.44;4944065;28;8886;-73
2021/04/11 08:15:50;;;;;;;;;6.60;6.60;;;;;34.18;43.50;98859.66;4945076;28;8900;-70
2021/04/11 08:18:43;;;;;;;;;5.20;5.20;;;;;34.16;43.69;98847.59;4950509;28;8841;-70
2021/04/11 08:21:34;;;;;;;;;8.40;8.40;;;;;34.08;43.73;98841.50;4949871;28;8854;-70
2021/04/11 08:24:42;;;;;;;;;7.40;7.40;;;;;33.98;42.80;98828.78;4949011;28;8857;-70
2021/04/11 08:27:42;;;;;;;;;6.60;6.60;;;;;34.11;41.37;98829.69;4954487;28;8849;-71
2021/04/11 08:30:44;;;;;;;;;8.20;8.20;;;;;34.17;41.69;98814.31;4954330;28;8880;-70
2021/04/11 08:33:44;;;;;;;;;6.60;6.60;;;;;34.25;43.34;98802.03;4954835;28;8881;-71
2021/04/11 08:36:44;;;;;;;;;5.60;5.60;;;;;33.95;41.80;98755.75;4955373;28;8877;-71
2021/04/11 08:39:51;;;;;;;;;6.80;6.80;;;;;34.19;43.04;98792.00;4955471;28;8884;-72
2021/04/11 08:42:45;;;;;;;;;6.60;6.60;;;;;34.14;43.54;98776.84;4951088;28;8864;-71
2021/04/11 08:45:39;;;;;;;;;6.60;6.60;;;;;34.12;42.29;98784.69;4955129;28;8880;-70
2021/04/11 08:48:39;;;;;;;;;7.80;7.80;;;;;34.10;42.55;98795.31;4955636;28;8866;-72
2021/04/11 08:51:29;;;;;;;;;7.00;7.00;;;;;34.09;42.60;98785.53;4955726;28;8849;-71
2021/04/11 08:54:22;;;;;;;;;7.80;7.80;;;;;34.11;42.69;98783.16;4954965;28;8877;-72
2021/04/11 08:57:13;;;;;;;;;6.60;6.60;;;;;34.10;43.04;98770.66;4975001;28;8866;-71
2021/04/11 09:00:07;;;;;;;;;7.00;7.00;;;;;34.19;42.94;98781.03;4988247;28;8851;-72
2021/04/11 09:03:07;;;;;;;;;6.20;6.20;;;;;34.21;42.67;98773.16;4994297;28;8836;-72
2021/04/11 09:06:06;;;;;;;;;7.00;7.00;;;;;34.25;42.43;98774.63;4991845;28;8844;-72
2021/04/11 09:08:59;;;;;;;;;8.20;8.20;;;;;34.27;41.12;98771.47;4994530;28;8852;-72
2021/04/11 09:11:59;;;;;;;;;9.00;9.00;;;;;34.13;43.36;98736.97;4993127;28;8903;-72
2021/04/11 09:14:59;;;;;;;;;8.60;8.60;;;;;34.32;41.71;98751.81;4991374;28;8951;-71
2021/04/11 09:17:48;;;;;;;;;7.00;7.00;;;;;34.36;43.05;98752.53;4993005;28;8859;-71
2021/04/11 09:20:47;;;;;;;;;5.20;5.20;;;;;34.39;41.17;98748.16;4992423;28;8970;-71
2021/04/11 09:23:36;;;;;;;;;6.00;6.00;;;;;34.47;42.87;98752.28;4992835;28;8852;-71
2021/04/11 09:26:42;;;;;;;;;7.80;7.80;;;;;34.46;41.10;98745.25;4991934;28;8832;-71
2021/04/11 09:29:33;;;;;;;;;11.00;11.00;;;;;34.45;42.93;98739.00;4992123;28;8832;-71
2021/04/11 09:32:33;;;;;;;;;7.00;7.00;;;;;34.47;41.92;98742.09;4993208;28;8843;-72
2021/04/11 09:35:33;;;;;;;;;8.20;8.20;;;;;34.45;41.33;98747.22;4993129;28;8916;-71
2021/04/11 09:38:34;;;;;;;;;9.20;9.20;;;;;34.45;41.50;98733.53;4992641;28;8851;-71
2021/04/11 09:41:34;;;;;;;;;8.00;8.00;;;;;34.52;41.95;98743.53;4992415;28;8930;-72
2021/04/11 09:44:32;;;;;;;;;11.00;11.00;;;;;34.50;42.45;98745.94;4991792;28;8845;-73
2021/04/11 09:47:28;;;;;;;;;7.40;7.40;;;;;34.42;42.49;98736.34;4992564;28;8836;-72
2021/04/11 09:50:21;;;;;;;;;7.00;7.00;;;;;34.39;42.85;98734.47;4992494;28;8852;-71
2021/04/11 09:53:21;;;;;;;;;5.60;5.60;;;;;34.31;41.82;98737.38;4990904;28;8860;-73
2021/04/11 09:56:14;;;;;;;;;7.60;7.60;;;;;34.27;41.40;98736.66;4971063;28;8968;-72
2021/04/11 09:59:10;;;;;;;;;6.20;6.20;;;;;34.27;41.40;98742.13;4971675;28;8857;-71
2021/04/11 10:02:06;;;;;;;;;6.40;6.40;;;;;34.21;41.84;98738.34;4973116;28;9598;-72
2021/04/11 10:05:06;;;;;;;;;7.60;7.60;;;;;34.24;42.37;98753.94;4973084;28;8865;-71
2021/04/11 10:07:59;;;;;;;;;4.60;4.60;;;;;34.24;40.98;98755.91;4972625;28;8875;-71
2021/04/11 10:10:51;;;;;;;;;9.00;9.00;;;;;34.12;41.54;98738.16;4961178;28;8864;-71
2021/04/11 10:13:51;;;;;;;;;8.60;8.60;;;;;34.27;41.59;98755.03;4969936;28;8873;-72
2021/04/11 10:16:41;;;;;;;;;6.60;6.60;;;;;34.27;41.40;98757.78;4973093;28;8960;-71
2021/04/11 10:19:39;;;;;;;;;4.80;4.80;;;;;34.24;41.90;98762.13;4972821;28;8869;-71
2021/04/11 10:22:39;;;;;;;;;7.20;7.20;;;;;34.21;41.04;98754.00;4974277;28;8928;-72
2021/04/11 10:25:35;;;;;;;;;6.60;6.60;;;;;34.18;42.01;98746.66;4974333;28;8877;-71
2021/04/11 10:28:28;;;;;;;;;7.80;7.80;;;;;34.18;41.31;98743.91;4972506;28;8845;-70
2021/04/11 10:31:28;;;;;;;;;6.60;6.60;;;;;34.12;41.63;98740.13;4973270;28;8873;-71
2021/04/11 10:34:26;;;;;;;;;5.80;5.80;;;;;34.04;41.37;98737.53;4972964;28;8853;-71
2021/04/11 10:37:16;;;;;;;;;9.20;7.80;;;;;34.02;42.15;98744.63;4973021;28;8846;-72
2021/04/11 10:40:02;;;;;;;;;6.80;6.80;;;;;33.95;41.73;98744.78;4971829;28;8838;-72
2021/04/11 10:42:49;;;;;;;;;9.20;9.20;;;;;33.94;41.87;98759.66;4971057;28;8896;-72
2021/04/11 10:45:44;;;;;;;;;3.20;3.20;;;;;33.89;41.20;98760.94;4972262;28;8935;-74
2021/04/11 10:48:37;;;;;;;;;7.60;7.60;;;;;33.87;41.54;98768.03;4972045;28;9015;-73
2021/04/11 10:51:37;;;;;;;;;9.40;9.40;;;;;33.81;42.27;98775.97;4972138;28;8975;-72
2021/04/11 10:54:37;;;;;;;;;6.40;6.40;;;;;33.80;42.10;98782.66;4970340;28;8865;-72
2021/04/11 10:57:30;;;;;;;;;10.00;10.00;;;;;33.78;41.90;98797.91;4971179;28;8951;-72
2021/04/11 11:00:30;;;;;;;;;10.00;9.40;;;;;33.76;42.14;98800.31;4968949;28;9703;-73
2021/04/11 11:03:25;;;;;;;;;9.00;9.00;;;;;33.74;42.49;98808.16;4970452;28;8968;-72
2021/04/11 11:06:18;;;;;;;;;10.25;10.25;;;;;33.71;43.50;98815.25;4970668;28;8862;-72
2021/04/11 11:09:10;;;;;;;;;11.50;11.50;;;;;33.60;42.83;98812.72;4968588;28;8842;-73
2021/04/11 11:12:18;;;;;;;;;7.25;7.25;;;;;33.46;43.19;98826.66;4971241;28;8885;-72
2021/04/11 11:15:18;;;;;;;;;9.75;9.75;;;;;33.13;43.11;98803.75;4968102;28;8892;-72
2021/04/11 11:18:25;;;;;;;;;12.25;12.25;;;;;33.21;43.63;98837.22;4971116;28;8888;-72
2021/04/11 11:21:26;;;;;;;;;7.75;7.75;;;;;33.16;43.35;98841.19;4970827;28;8849;-72
2021/04/11 11:24:20;;;;;;;;;8.00;8.00;;;;;33.06;43.62;98845.66;4971442;28;8842;-72
2021/04/11 11:27:14;;;;;;;;;10.00;10.00;;;;;32.99;43.16;98853.97;4971214;28;8857;-72
2021/04/11 11:30:06;;;;;;;;;9.25;9.25;;;;;32.95;43.67;98860.66;4971958;28;8858;-73
2021/04/11 11:33:03;;;;;;;;;11.75;11.75;;;;;32.85;43.57;98856.91;4971125;28;8956;-72
2021/04/11 11:35:32;;;;;;;;;9.75;9.75;;;;;32.90;43.32;98880.25;4970955;28;8849;-72
2021/04/11 11:38:20;;;;;;;;;10.75;10.75;;;;;32.89;43.38;98875.97;4968589;28;8896;-72
2021/04/11 11:41:10;;;;;;;;;9.75;9.75;;;;;32.86;43.47;98877.59;4970770;28;8892;-71
2021/04/11 11:44:03;;;;;;;;;9.25;9.25;;;;;32.86;44.14;98885.00;4961320;28;8985;-72
2021/04/11 11:46:52;;;;;;;;;8.75;8.75;;;;;32.34;44.09;98809.66;4967113;28;8861;-72
2021/04/11 11:49:46;;;;;;;;;10.25;10.25;;;;;32.84;43.51;98888.16;4968735;28;8901;-72
2021/04/11 11:52:48;;;;;;;;;9.75;9.75;;;;;32.84;44.30;98892.84;4970126;28;8881;-72
2021/04/11 11:55:38;;;;;;;;;11.00;11.00;;;;;32.83;44.15;98897.53;4977322;28;8841;-71
2021/04/11 11:58:19;;;;;;;;;8.75;8.75;;;;;32.81;44.12;98894.44;4990949;28;8922;-71
2021/04/11 12:01:10;;;;;;;;;10.00;10.00;;;;;32.83;44.02;98905.72;4990001;28;8816;-71
2021/04/11 12:03:39;;;;;;;;;10.25;9.75;;;;;32.64;44.06;98873.56;4971799;28;8851;-72
2021/04/11 12:06:33;;;;;;;;;10.00;10.00;;;;;32.81;44.66;98902.63;4989708;28;8852;-72
2021/04/11 12:09:23;;;;;;;;;9.75;9.75;;;;;32.63;44.50;98888.41;4988757;28;8970;-72
2021/04/11 12:12:04;;;;;;;;;10.75;10.75;;;;;32.66;44.21;98898.53;4989160;28;8805;-72
2021/04/11 12:15:01;;;;;;;;;12.75;12.50;;;;;32.68;44.42;98902.38;4988649;28;8914;-73
2021/04/11 12:17:53;;;;;;;;;11.25;11.25;;;;;32.71;44.50;98914.44;4988586;28;8839;-71
2021/04/11 12:20:52;;;;;;;;;10.25;10.25;;;;;32.62;44.83;98914.19;4989425;28;8853;-71
2021/04/11 12:23:36;;;;;;;;;11.25;11.25;;;;;32.65;44.70;98924.28;4972404;28;8918;-72
2021/04/11 12:26:18;;;;;;;;;11.50;11.50;;;;;32.49;45.26;98910.47;4988727;28;8812;-72
2021/04/11 12:28:49;;;;;;;;;16.00;16.00;;;;;32.59;45.22;98942.31;4990251;28;8909;-72
2021/04/11 12:31:28;;;;;;;;;21.75;20.75;;;;;32.57;45.37;98941.94;4989280;28;8844;-72
2021/04/11 12:34:35;;;;;;;;;17.25;17.25;;;;;32.55;45.45;98933.41;4989029;28;8839;-71
2021/04/11 12:37:34;;;;;;;;;13.00;12.75;;;;;32.53;45.27;98938.50;4989660;28;8927;-72
2021/04/11 12:40:27;;;;;;;;;11.50;11.50;;;;;32.49;45.87;98935.06;4989004;28;8859;-72
2021/04/11 12:43:20;;;;;;;;;12.00;12.00;;;;;32.50;46.38;98942.06;4988678;28;8922;-72
2021/04/11 12:46:15;;;;;;;;;12.75;12.75;;;;;32.46;45.28;98946.81;4989716;28;8874;-72
2021/04/11 12:49:15;;;;;;;;;12.25;11.75;;;;;32.47;45.28;98948.34;4989357;28;8852;-72
2021/04/11 12:52:07;;;;;;;;;13.00;12.50;;;;;32.44;46.60;98958.13;4991095;28;8856;-72
2021/04/11 12:55:05;;;;;;;;;12.00;12.00;;;;;32.40;46.86;98971.81;4993605;28;8918;-72
2021/04/11 12:57:43;;;;;;;;;11.00;11.00;;;;;32.34;46.73;98965.25;4989917;28;8967;-72
2021/04/11 13:00:22;;;;;;;;;13.25;13.25;;;;;32.31;46.17;98971.53;4991587;28;8926;-72
2021/04/11 13:03:13;;;;;;;;;10.00;10.00;;;;;32.18;47.01;98972.44;4992423;28;8816;-71
2021/04/11 13:05:52;;;;;;;;;17.00;17.00;;;;;32.10;48.94;98990.81;4991222;28;8844;-71